Time;durP1;ratioP1;P1;durP2;ratioP2;P2;SDS_P1;SDS_P2;PMS_P1;PMS_P2;Temp;Humidity;BMP_temperature;BMP_pressure;BME280_temperature;BME280_humidity;BME280_pressure;Samples;Min_cycle;Max_cycle;Signal;HPM_P1;HPM_P2
2022/07/28 00:02:04;;;;;;;33.55;5.82;;;25.60;99.90;;;;;;4882795;29;20053;-93
2022/07/28 00:04:34;;;;;;;16.95;5.13;;;25.70;99.90;;;;;;4866893;29;20040;-93
2022/07/28 00:07:04;;;;;;;21.92;4.35;;;25.60;99.90;;;;;;4882424;29;20033;-93
2022/07/28 00:09:30;;;;;;;18.48;5.45;;;25.50;99.90;;;;;;4882394;29;20092;-93
2022/07/28 00:11:57;;;;;;;19.33;4.03;;;25.50;99.90;;;;;;4883094;29;20424;-93
2022/07/28 00:14:24;;;;;;;21.63;4.60;;;25.40;99.90;;;;;;4882435;29;20093;-93
2022/07/28 00:17:06;;;;;;;17.63;3.78;;;25.50;99.90;;;;;;4882428;29;20044;-93
2022/07/28 00:19:33;;;;;;;21.08;4.32;;;25.50;99.90;;;;;;4866589;29;20033;-93
2022/07/28 00:22:01;;;;;;;15.75;4.22;;;25.40;99.90;;;;;;4882198;29;20029;-93
2022/07/28 00:24:30;;;;;;;20.63;4.43;;;25.50;99.90;;;;;;4882091;29;20431;-93
2022/07/28 00:27:00;;;;;;;20.10;4.30;;;25.40;99.90;;;;;;4866528;29;20100;-94
2022/07/28 00:29:28;;;;;;;18.80;4.28;;;25.50;99.90;;;;;;4883969;29;20040;-93
2022/07/28 00:31:55;;;;;;;18.73;4.30;;;25.50;99.90;;;;;;4882604;29;20033;-94
2022/07/28 00:34:25;;;;;;;19.55;4.35;;;25.50;99.90;;;;;;4881969;29;20037;-94
2022/07/28 00:36:51;;;;;;;20.13;4.43;;;25.50;99.90;;;;;;4866793;29;20021;-95
2022/07/28 00:39:18;;;;;;;27.88;4.90;;;25.60;99.90;;;;;;4881608;29;20032;-94
2022/07/28 00:41:45;;;;;;;15.90;4.38;;;25.60;99.90;;;;;;4881723;29;20044;-94
2022/07/28 00:44:12;;;;;;;20.80;4.20;;;25.60;99.90;;;;;;4881800;29;20029;-93
2022/07/28 00:46:38;;;;;;;21.00;4.40;;;25.60;99.90;;;;;;4881620;29;20025;-93
2022/07/28 00:49:05;;;;;;;17.90;4.05;;;25.60;99.90;;;;;;4866278;29;20044;-93
2022/07/28 00:51:32;;;;;;;16.95;3.78;;;25.60;99.90;;;;;;4881743;29;20038;-93
2022/07/28 00:53:59;;;;;;;15.73;4.28;;;25.70;99.90;;;;;;4865986;29;20160;-93
2022/07/28 00:56:26;;;;;;;21.50;4.05;;;25.60;99.90;;;;;;4881501;29;20021;-92
2022/07/28 00:58:53;;;;;;;20.23;4.65;;;25.60;99.90;;;;;;4866011;29;20033;-93
2022/07/28 01:01:20;;;;;;;16.70;4.32;;;25.60;99.90;;;;;;4880915;29;20041;-93
2022/07/28 01:03:55;;;;;;;14.95;3.70;;;25.60;99.90;;;;;;4865876;29;20033;-93
2022/07/28 01:06:31;;;;;;;18.17;4.20;;;25.60;99.90;;;;;;4881342;29;20121;-93
2022/07/28 01:09:10;;;;;;;13.98;4.68;;;25.60;99.90;;;;;;4883871;29;20041;-93
2022/07/28 01:12:14;;;;;;;13.98;5.20;;;25.60;99.90;;;;;;4881217;29;20033;-92
2022/07/28 01:14:48;;;;;;;15.47;5.37;;;25.60;99.90;;;;;;4881100;29;20033;-93
2022/07/28 01:17:58;;;;;;;18.02;5.70;;;25.60;99.90;;;;;;4881192;29;20033;-93
2022/07/28 01:20:51;;;;;;;17.45;5.40;;;25.60;99.90;;;;;;4881019;29;20066;-93
2022/07/28 01:23:55;;;;;;;18.98;6.03;;;25.60;99.90;;;;;;4880919;29;20120;-94
2022/07/28 01:26:41;;;;;;;20.13;6.45;;;25.60;99.90;;;;;;4881116;29;20037;-92
2022/07/28 01:29:33;;;;;;;18.30;5.85;;;25.60;99.90;;;;;;4880943;29;20088;-93
2022/07/28 01:32:49;;;;;;;20.02;6.40;;;25.60;99.90;;;;;;4880765;29;20575;-94
2022/07/28 01:35:25;;;;;;;;;;;25.70;99.90;;;;;;4831531;29;20056;-94
2022/07/28 01:37:58;;;;;;;17.52;6.78;;;25.70;99.90;;;;;;4830974;29;19923;-93
2022/07/28 01:40:32;;;;;;;16.08;6.25;;;25.70;99.90;;;;;;4830865;29;20116;-94
2022/07/28 01:43:04;;;;;;;17.88;6.82;;;25.80;99.90;;;;;;4831031;29;20065;-93
2022/07/28 01:45:33;;;;;;;17.05;6.55;;;25.80;99.90;;;;;;4831048;29;20399;-94
2022/07/28 01:48:03;;;;;;;20.42;6.75;;;25.80;99.90;;;;;;4830762;29;20093;-93
2022/07/28 01:50:32;;;;;;;18.70;6.88;;;25.90;99.90;;;;;;4830738;29;20048;-93
2022/07/28 01:52:59;;;;;;;26.00;7.35;;;25.90;99.90;;;;;;4830610;29;20045;-93
2022/07/28 01:55:27;;;;;;;16.73;7.03;;;25.90;99.90;;;;;;4830601;29;20052;-93
2022/07/28 01:57:56;;;;;;;15.68;6.88;;;25.90;99.90;;;;;;4832439;29;20123;-93
2022/07/28 02:00:25;;;;;;;21.70;7.53;;;26.00;99.90;;;;;;4830988;29;20034;-94
2022/07/28 02:02:53;;;;;;;16.90;7.43;;;26.00;99.90;;;;;;4830196;29;20140;-94
2022/07/28 02:05:22;;;;;;;24.08;6.90;;;26.00;99.90;;;;;;4830423;29;20033;-94
2022/07/28 02:07:50;;;;;;;18.65;6.38;;;26.00;99.90;;;;;;4830634;29;20083;-92
2022/07/28 02:10:18;;;;;;;20.85;6.65;;;26.00;99.90;;;;;;4842156;29;20049;-93
2022/07/28 02:12:48;;;;;;;20.83;7.28;;;26.00;99.90;;;;;;4880212;29;20041;-93
2022/07/28 02:15:15;;;;;;;24.63;7.07;;;26.00;99.90;;;;;;4880072;29;20056;-93
2022/07/28 02:17:46;;;;;;;22.77;7.05;;;26.10;99.90;;;;;;4880085;29;20514;-95
2022/07/28 02:20:16;;;;;;;20.30;7.05;;;26.10;99.90;;;;;;4880274;29;20044;-93
2022/07/28 02:22:45;;;;;;;21.05;7.38;;;26.10;99.90;;;;;;4879728;29;20033;-95
2022/07/28 02:25:12;;;;;;;15.30;7.10;;;26.10;99.90;;;;;;4880298;29;20054;-93
2022/07/28 02:28:02;;;;;;;21.88;7.28;;;26.10;99.90;;;;;;4879846;29;20037;-93
2022/07/28 02:30:36;;;;;;;17.83;6.95;;;26.10;99.90;;;;;;4864734;29;20041;-93
2022/07/28 02:33:16;;;;;;;16.13;7.35;;;26.20;99.90;;;;;;4879823;29;20144;-93
2022/07/28 02:35:51;;;;;;;23.08;7.15;;;26.20;99.90;;;;;;4879897;29;20035;-94
2022/07/28 02:38:33;;;;;;;21.50;7.53;;;26.20;99.90;;;;;;4881764;29;20040;-93
2022/07/28 02:41:07;;;;;;;18.58;7.50;;;26.10;99.90;;;;;;4880672;29;20029;-93
2022/07/28 02:43:41;;;;;;;18.10;6.55;;;26.10;99.90;;;;;;4879660;29;20411;-93
2022/07/28 02:46:15;;;;;;;19.60;7.20;;;26.00;99.90;;;;;;4879600;29;20033;-93
2022/07/28 02:48:49;;;;;;;16.98;7.32;;;25.90;99.90;;;;;;4864131;29;20071;-93
2022/07/28 02:51:17;;;;;;;16.02;6.75;;;25.90;99.90;;;;;;4879692;29;20025;-93
2022/07/28 02:53:45;;;;;;;17.20;6.72;;;25.90;99.90;;;;;;4880915;29;20506;-93
2022/07/28 02:56:14;;;;;;;18.83;7.25;;;25.90;99.90;;;;;;4879688;29;20029;-94
2022/07/28 02:58:42;;;;;;;22.05;7.93;;;25.90;99.90;;;;;;4879474;29;20044;-94
2022/07/28 03:01:10;;;;;;;18.40;7.38;;;25.90;99.90;;;;;;4879248;29;20040;-93
2022/07/28 03:03:37;;;;;;;24.42;7.72;;;25.80;99.90;;;;;;4879476;29;20029;-94
2022/07/28 03:06:08;;;;;;;19.35;7.30;;;25.80;99.90;;;;;;4864492;29;20096;-93
2022/07/28 03:08:35;;;;;;;17.67;6.72;;;25.80;99.90;;;;;;4879929;29;20025;-93
2022/07/28 03:11:10;;;;;;;24.08;7.32;;;25.70;99.90;;;;;;4864058;29;20487;-93
2022/07/28 03:13:37;;;;;;;20.60;7.93;;;25.70;99.90;;;;;;4879400;29;20384;-95
2022/07/28 03:16:04;;;;;;;21.17;8.40;;;25.70;99.90;;;;;;4879468;29;20108;-94
2022/07/28 03:18:31;;;;;;;18.60;6.85;;;25.70;99.90;;;;;;4879484;29;20518;-93
2022/07/28 03:20:59;;;;;;;16.02;7.40;;;25.60;99.90;;;;;;4879272;29;20026;-92
2022/07/28 03:23:35;;;;;;;21.02;7.15;;;25.60;99.90;;;;;;4879223;29;20037;-92
2022/07/28 03:26:14;;;;;;;18.00;7.97;;;25.60;99.90;;;;;;4881128;29;20037;-92
2022/07/28 03:28:43;;;;;;;23.10;8.43;;;25.50;99.90;;;;;;4863996;29;20041;-92
2022/07/28 03:31:14;;;;;;;32.38;8.27;;;25.60;99.90;;;;;;4879425;29;20036;-92
2022/07/28 03:33:41;;;;;;;13.73;7.70;;;25.60;99.90;;;;;;4879267;29;20506;-92
2022/07/28 03:36:21;;;;;;;23.00;7.55;;;25.60;99.90;;;;;;4882251;29;20029;-93
2022/07/28 03:38:59;;;;;;;18.17;7.70;;;25.60;99.90;;;;;;4883382;29;20518;-93
2022/07/28 03:41:31;;;;;;;19.30;8.10;;;25.50;99.90;;;;;;4882166;29;20116;-93
2022/07/28 03:43:59;;;;;;;19.75;8.27;;;25.60;99.90;;;;;;4864282;29;20033;-92
2022/07/28 03:46:26;;;;;;;21.83;7.25;;;25.60;99.90;;;;;;4866202;29;20029;-91
2022/07/28 03:48:53;;;;;;;25.95;8.07;;;25.60;99.90;;;;;;4856329;29;20029;-92
2022/07/28 03:51:20;;;;;;;24.05;8.30;;;25.70;99.90;;;;;;4865896;29;20034;-92
2022/07/28 03:53:48;;;;;;;24.13;8.88;;;25.70;99.90;;;;;;4864450;29;20073;-93
2022/07/28 03:56:15;;;;;;;25.33;8.10;;;25.70;99.90;;;;;;4864165;29;20479;-93
2022/07/28 03:58:42;;;;;;;19.45;8.13;;;25.70;99.90;;;;;;4851294;29;20402;-92
2022/07/28 04:01:09;;;;;;;28.80;8.50;;;25.70;99.90;;;;;;4867340;29;20053;-92
2022/07/28 04:03:35;;;;;;;21.80;7.95;;;25.70;99.90;;;;;;4864613;29;20403;-94
2022/07/28 04:06:02;;;;;;;24.60;7.68;;;25.70;99.90;;;;;;4864065;29;20037;-93
2022/07/28 04:08:29;;;;;;;25.55;9.40;;;25.80;99.90;;;;;;4863871;29;20044;-93
2022/07/28 04:10:56;;;;;;;25.98;7.60;;;25.80;99.90;;;;;;4865634;29;20036;-92
2022/07/28 04:13:22;;;;;;;24.55;7.95;;;25.80;99.90;;;;;;4864121;29;20048;-92
2022/07/28 04:15:49;;;;;;;20.38;8.18;;;25.80;99.90;;;;;;4863479;29;20026;-92
2022/07/28 04:18:17;;;;;;;22.17;7.88;;;25.80;99.90;;;;;;4863560;29;20070;-92
2022/07/28 04:20:44;;;;;;;20.88;7.97;;;25.80;99.90;;;;;;4863925;29;20112;-92
2022/07/28 04:23:11;;;;;;;27.83;7.75;;;25.80;99.90;;;;;;4848229;29;20411;-93
2022/07/28 04:25:40;;;;;;;26.73;7.60;;;25.90;99.90;;;;;;4863582;29;20022;-92
2022/07/28 04:28:07;;;;;;;20.90;7.63;;;26.10;99.90;;;;;;4863318;29;20065;-93
2022/07/28 04:30:33;;;;;;;28.10;7.60;;;26.10;99.90;;;;;;4848226;29;20113;-92
2022/07/28 04:33:00;;;;;;;16.30;7.13;;;26.20;99.90;;;;;;4863460;29;20044;-93
2022/07/28 04:35:27;;;;;;;24.42;7.32;;;26.30;99.90;;;;;;4863292;29;20126;-92
2022/07/28 04:37:57;;;;;;;23.70;7.80;;;26.30;99.90;;;;;;4863361;29;20054;-93
2022/07/28 04:40:25;;;;;;;24.05;7.97;;;26.20;99.90;;;;;;4863330;29;20122;-92
2022/07/28 04:42:52;;;;;;;29.13;9.18;;;26.20;99.90;;;;;;4863144;29;20501;-94
2022/07/28 04:45:20;;;;;;;24.40;8.23;;;26.10;99.90;;;;;;4862873;29;20048;-92
2022/07/28 04:47:47;;;;;;;25.60;7.90;;;26.20;99.90;;;;;;4863389;29;20559;-91
2022/07/28 04:50:16;;;;;;;25.38;8.07;;;26.50;99.90;;;;;;4863191;29;20483;-93
2022/07/28 04:52:48;;;;;;;33.03;9.00;;;27.00;99.90;;;;;;4848811;29;20033;-92
2022/07/28 04:55:16;;;;;;;32.70;9.25;;;27.80;99.90;;;;;;4847633;29;20061;-93
2022/07/28 04:57:43;;;;;;;27.65;8.68;;;28.10;99.90;;;;;;4848982;29;20029;-93
2022/07/28 05:00:13;;;;;;;41.17;8.85;;;28.20;99.90;;;;;;4863320;29;20046;-93
2022/07/28 05:02:42;;;;;;;21.27;8.13;;;28.70;99.90;;;;;;4862566;29;20495;-92
2022/07/28 05:05:09;;;;;;;25.63;8.40;;;29.20;99.90;;;;;;4863093;29;20037;-93
2022/07/28 05:07:45;;;;;;;28.45;8.98;;;29.50;99.90;;;;;;4863839;29;20041;-94
2022/07/28 05:10:12;;;;;;;28.83;9.40;;;29.70;99.90;;;;;;4848290;29;20034;-92
2022/07/28 05:12:39;;;;;;;26.05;8.23;;;29.60;99.90;;;;;;4862660;29;20041;-92
2022/07/28 05:15:08;;;;;;;24.35;8.43;;;29.50;99.90;;;;;;4862743;29;20036;-93
2022/07/28 05:17:35;;;;;;;27.98;8.02;;;30.00;99.90;;;;;;4862981;29;20029;-92
2022/07/28 05:20:05;;;;;;;31.75;8.68;;;29.90;99.90;;;;;;4862699;29;20030;-93
2022/07/28 05:22:46;;;;;;;27.63;7.68;;;30.30;99.90;;;;;;4862561;29;20093;-92
2022/07/28 05:25:24;;;;;;;20.98;6.32;;;30.60;99.90;;;;;;4862554;29;20037;-93
2022/07/28 05:27:52;;;;;;;24.38;7.03;;;30.60;99.90;;;;;;4862405;29;20090;-93
2022/07/28 05:30:20;;;;;;;25.20;6.97;;;31.20;99.90;;;;;;4862265;29;20085;-93
2022/07/28 05:32:52;;;;;;;21.70;7.35;;;31.30;99.90;;;;;;4862214;29;20040;-93
2022/07/28 05:35:19;;;;;;;18.85;6.75;;;31.40;99.90;;;;;;4862317;29;20174;-92
2022/07/28 05:38:04;;;;;;;25.38;7.00;;;31.90;99.90;;;;;;4862643;29;20072;-92
2022/07/28 05:40:31;;;;;;;17.67;6.55;;;32.30;99.90;;;;;;4863316;29;20038;-94
2022/07/28 05:43:25;;;;;;;;;;;;;;;;;;;;;
2022/07/28 05:45:52;;;;;;;;;;;32.50;99.90;;;;;;4863490;29;20036;-93
2022/07/28 05:48:20;;;;;;;23.13;7.15;;;32.80;99.90;;;;;;4861976;29;20007;-94
2022/07/28 05:50:48;;;;;;;21.48;7.25;;;32.90;99.90;;;;;;4862185;29;20025;-91
2022/07/28 05:53:15;;;;;;;15.82;6.85;;;32.60;99.90;;;;;;4861839;29;20144;-92
2022/07/28 05:55:42;;;;;;;19.45;7.15;;;32.30;99.90;;;;;;4862270;29;20490;-93
2022/07/28 05:58:09;;;;;;;14.32;6.22;;;32.40;99.90;;;;;;4861438;29;20041;-93
2022/07/28 06:00:35;;;;;;;17.40;6.65;;;32.20;99.90;;;;;;4862202;29;20085;-93
2022/07/28 06:32:24;;;;;;;16.88;6.47;;;33.20;99.90;;;;;;5947222;23;21507;-91
2022/07/28 06:34:50;;;;;;;14.32;6.63;;;33.40;99.90;;;;;;4907891;29;20494;-92
2022/07/28 06:37:17;;;;;;;17.50;6.88;;;33.60;99.90;;;;;;4911368;29;20036;-91
2022/07/28 06:39:43;;;;;;;15.55;6.80;;;33.60;99.90;;;;;;4903577;29;20036;-93
2022/07/28 06:42:10;;;;;;;19.67;7.07;;;33.60;99.90;;;;;;4903689;29;20064;-94
2022/07/28 06:44:36;;;;;;;18.52;7.03;;;33.90;99.90;;;;;;4910208;29;20389;-93
2022/07/28 06:47:03;;;;;;;14.40;6.70;;;34.10;99.90;;;;;;4886657;29;20024;-92
2022/07/28 06:49:29;;;;;;;19.88;7.72;;;34.20;99.90;;;;;;4888382;29;20119;-95
2022/07/28 06:51:56;;;;;;;16.08;6.97;;;34.20;99.90;;;;;;4885806;29;20024;-94
2022/07/28 06:54:23;;;;;;;18.60;7.18;;;34.30;99.90;;;;;;4870691;29;20044;-93
2022/07/28 06:56:51;;;;;;;15.75;7.20;;;34.60;99.90;;;;;;4885968;29;20028;-92
2022/07/28 06:59:18;;;;;;;20.95;8.07;;;34.50;99.90;;;;;;4882167;29;20443;-92
2022/07/28 07:01:45;;;;;;;13.20;7.93;;;34.80;99.90;;;;;;4897760;29;20029;-93
2022/07/28 07:04:12;;;;;;;19.33;8.23;;;35.60;99.90;;;;;;4904727;29;20149;-93
2022/07/28 07:06:38;;;;;;;14.18;7.00;;;35.80;99.90;;;;;;4903355;29;20032;-94
2022/07/28 07:09:04;;;;;;;16.73;7.47;;;35.30;99.90;;;;;;4902359;29;20153;-93
2022/07/28 07:11:31;;;;;;;17.52;7.75;;;34.70;99.90;;;;;;4902907;29;20159;-93
2022/07/28 07:13:57;;;;;;;15.88;7.35;;;34.90;99.90;;;;;;4903540;29;20044;-91
2022/07/28 07:16:23;;;;;;;15.52;7.72;;;35.10;99.90;;;;;;4904788;29;20359;-94
2022/07/28 07:18:52;;;;;;;12.07;7.25;;;35.20;99.90;;;;;;4903505;29;20032;-93
2022/07/28 07:21:19;;;;;;;10.52;7.28;;;35.60;99.90;;;;;;4886462;29;20037;-92
2022/07/28 07:23:45;;;;;;;14.05;8.80;;;35.40;99.90;;;;;;4883635;29;20049;-94
2022/07/28 07:26:12;;;;;;;12.60;7.90;;;35.40;99.90;;;;;;4883487;29;20127;-93
2022/07/28 07:28:40;;;;;;;14.65;8.52;;;36.20;99.90;;;;;;4882113;29;20050;-93
2022/07/28 07:31:08;;;;;;;12.82;8.55;;;35.90;99.90;;;;;;4883209;29;20029;-96
2022/07/28 07:33:35;;;;;;;9.38;8.38;;;36.20;99.90;;;;;;4885076;29;20053;-94
2022/07/28 07:36:01;;;;;;;9.23;8.07;;;36.30;99.90;;;;;;4882943;29;20029;-93
2022/07/28 07:38:28;;;;;;;11.90;9.27;;;35.90;99.90;;;;;;4882347;29;20028;-93
2022/07/28 07:40:54;;;;;;;10.32;9.43;;;35.60;99.90;;;;;;4874516;29;20089;-92
2022/07/28 07:43:20;;;;;;;11.05;9.60;;;35.60;99.90;;;;;;4884830;29;20033;-94
2022/07/28 07:45:47;;;;;;;14.40;9.75;;;35.70;99.90;;;;;;4885387;29;20037;-94
2022/07/28 07:48:13;;;;;;;15.45;10.50;;;35.70;99.90;;;;;;4869042;29;20032;-96
2022/07/28 07:50:42;;;;;;;10.88;10.05;;;35.60;99.90;;;;;;4870362;29;20073;-94
2022/07/28 07:53:09;;;;;;;11.38;10.48;;;35.80;99.90;;;;;;4879425;29;20169;-92
2022/07/28 07:55:37;;;;;;;12.00;10.82;;;35.80;99.90;;;;;;4848399;29;20032;-93
2022/07/28 07:58:05;;;;;;;11.70;10.65;;;36.60;99.90;;;;;;4852488;29;20048;-94
2022/07/28 08:00:31;;;;;;;11.52;9.55;;;36.80;99.90;;;;;;4883435;29;20029;-95
2022/07/28 08:02:59;;;;;;;12.10;9.90;;;36.80;99.90;;;;;;4885203;29;20052;-94
2022/07/28 08:05:26;;;;;;;12.93;9.68;;;36.60;99.90;;;;;;4886272;29;20058;-93
2022/07/28 08:07:53;;;;;;;10.10;9.10;;;36.20;99.90;;;;;;4887308;29;20072;-94
2022/07/28 08:10:22;;;;;;;10.63;9.57;;;36.20;99.90;;;;;;4887899;29;20029;-95
2022/07/28 08:12:49;;;;;;;9.98;9.07;;;36.50;99.90;;;;;;4883545;29;20033;-93
2022/07/28 08:15:15;;;;;;;12.68;10.10;;;36.00;99.90;;;;;;4883170;29;20028;-95
2022/07/28 08:17:42;;;;;;;10.63;9.55;;;36.00;99.90;;;;;;4883940;29;20037;-94
2022/07/28 08:20:11;;;;;;;10.73;9.60;;;35.90;99.90;;;;;;4884023;29;20028;-93
2022/07/28 08:22:49;;;;;;;9.93;9.02;;;35.60;99.90;;;;;;4886932;29;20123;-93
2022/07/28 08:25:16;;;;;;;10.07;9.07;;;35.90;99.90;;;;;;4886735;29;20040;-91
2022/07/28 08:27:42;;;;;;;10.55;9.75;;;36.10;99.90;;;;;;4886554;29;20516;-93
2022/07/28 08:30:10;;;;;;;12.20;9.98;;;36.10;99.90;;;;;;4887024;29;20052;-92
2022/07/28 08:32:37;;;;;;;11.32;10.30;;;36.40;99.90;;;;;;4888290;29;20037;-94
2022/07/28 08:35:05;;;;;;;10.82;9.77;;;36.10;99.90;;;;;;4888508;29;20043;-92
2022/07/28 08:37:32;;;;;;;9.95;9.00;;;36.10;99.90;;;;;;4890957;29;20119;-92
2022/07/28 08:39:58;;;;;;;12.90;9.57;;;35.60;99.90;;;;;;4889612;29;20036;-93
2022/07/28 08:42:33;;;;;;;11.25;9.18;;;35.70;99.90;;;;;;4888170;29;20105;-92
2022/07/28 08:45:05;;;;;;;10.35;9.45;;;35.60;99.90;;;;;;4885895;29;20043;-92
2022/07/28 08:47:34;;;;;;;10.10;9.10;;;36.00;99.90;;;;;;4885421;29;20483;-93
2022/07/28 08:50:01;;;;;;;9.65;8.63;;;35.80;99.90;;;;;;4884858;29;20478;-93
2022/07/28 08:52:30;;;;;;;9.73;8.68;;;35.70;99.90;;;;;;4884702;29;20093;-93
2022/07/28 08:55:00;;;;;;;9.23;8.10;;;36.10;99.90;;;;;;4884837;29;20036;-94
2022/07/28 08:57:39;;;;;;;11.82;7.80;;;36.10;99.90;;;;;;4889237;29;20037;-94
2022/07/28 09:00:07;;;;;;;8.38;6.88;;;35.70;99.90;;;;;;4891980;29;20072;-93
2022/07/28 09:02:43;;;;;;;8.90;6.47;;;35.20;99.90;;;;;;4890993;29;20033;-94
2022/07/28 09:05:17;;;;;;;9.90;7.15;;;34.80;99.90;;;;;;4885908;29;20165;-94
2022/07/28 09:07:50;;;;;;;7.95;6.80;;;34.60;99.90;;;;;;4909439;23;20044;-93
2022/07/28 09:10:18;;;;;;;7.18;6.57;;;35.10;99.90;;;;;;4885808;29;20117;-93
2022/07/28 09:12:45;;;;;;;9.95;6.10;;;35.50;99.90;;;;;;4900269;29;20111;-92
2022/07/28 09:15:12;;;;;;;10.70;6.13;;;35.00;99.90;;;;;;4900252;29;20043;-92
2022/07/28 09:17:40;;;;;;;9.80;6.40;;;35.00;99.90;;;;;;4874869;29;20029;-93
2022/07/28 09:20:09;;;;;;;7.50;6.78;;;34.90;99.90;;;;;;4882918;29;20044;-94
2022/07/28 09:22:53;;;;;;;9.95;6.90;;;34.60;99.90;;;;;;4881242;29;20033;-94
2022/07/28 09:25:31;;;;;;;8.73;7.22;;;34.60;99.90;;;;;;4881746;29;20116;-94
2022/07/28 09:28:18;;;;;;;6.88;6.28;;;35.10;99.90;;;;;;4881220;29;20048;-94
2022/07/28 09:30:48;;;;;;;6.93;6.32;;;34.70;99.90;;;;;;4875520;29;20401;-95
2022/07/28 09:33:19;;;;;;;7.28;6.55;;;34.60;99.90;;;;;;4880385;29;20041;-93
2022/07/28 09:35:58;;;;;;;7.25;6.20;;;34.20;99.90;;;;;;4885010;29;20029;-93
2022/07/28 09:38:40;;;;;;;12.65;7.22;;;34.20;99.90;;;;;;4880799;29;20040;-94
2022/07/28 09:41:07;;;;;;;6.57;6.07;;;34.00;99.90;;;;;;4885519;29;20060;-94
2022/07/28 09:43:40;;;;;;;6.35;5.75;;;33.80;99.90;;;;;;4891772;29;20096;-94
2022/07/28 09:46:17;;;;;;;8.60;5.07;;;33.70;99.90;;;;;;4893265;29;20033;-95
2022/07/28 09:48:53;;;;;;;5.30;4.80;;;33.60;99.90;;;;;;4883349;29;20506;-94
2022/07/28 09:51:23;;;;;;;6.88;5.90;;;33.30;99.90;;;;;;4881187;29;20032;-93
2022/07/28 09:53:50;;;;;;;7.25;6.53;;;33.30;99.90;;;;;;4880740;29;20052;-95
2022/07/28 09:56:18;;;;;;;7.07;6.68;;;33.40;99.90;;;;;;4880849;29;20036;-93
2022/07/28 09:58:55;;;;;;;10.70;6.95;;;33.30;99.90;;;;;;4880615;29;20029;-94
2022/07/28 10:01:23;;;;;;;6.60;6.00;;;33.70;99.90;;;;;;4881258;29;20033;-93
2022/07/28 10:03:53;;;;;;;6.07;5.63;;;33.80;99.90;;;;;;4881997;29;20510;-93
2022/07/28 10:06:28;;;;;;;9.27;6.55;;;33.60;99.90;;;;;;4881133;29;20503;-94
2022/07/28 10:08:58;;;;;;;6.70;5.57;;;33.30;99.90;;;;;;4880603;29;20055;-93
2022/07/28 10:11:26;;;;;;;7.65;6.18;;;33.20;99.90;;;;;;4880586;29;20041;-93
2022/07/28 10:14:02;;;;;;;6.30;5.80;;;33.30;99.90;;;;;;4882694;29;20037;-92
2022/07/28 10:16:42;;;;;;;7.82;6.10;;;33.50;99.90;;;;;;4880720;29;20060;-93
2022/07/28 10:19:09;;;;;;;8.65;5.72;;;33.40;99.90;;;;;;4880559;29;20033;-94
2022/07/28 10:21:45;;;;;;;9.00;6.00;;;32.90;99.90;;;;;;4880139;29;20066;-94
2022/07/28 10:24:34;;;;;;;6.25;4.88;;;32.80;99.90;;;;;;4881030;29;20029;-94
2022/07/28 10:27:04;;;;;;;7.15;4.10;;;32.60;99.90;;;;;;4880223;29;20402;-94
2022/07/28 10:29:43;;;;;;;8.02;4.18;;;32.60;99.90;;;;;;4864682;29;20039;-93
2022/07/28 10:32:09;;;;;;;10.73;4.60;;;32.60;99.90;;;;;;4880143;29;20029;-95
2022/07/28 10:34:45;;;;;;;9.60;5.10;;;32.70;99.90;;;;;;4880470;29;20037;-94
2022/07/28 10:37:24;;;;;;;8.05;4.70;;;33.30;99.90;;;;;;4884385;29;20036;-94
2022/07/28 10:40:04;;;;;;;6.63;4.88;;;33.20;99.90;;;;;;4882200;29;20380;-93
2022/07/28 10:42:32;;;;;;;6.57;4.20;;;32.80;99.90;;;;;;4950482;24;20059;-93
2022/07/28 10:44:59;;;;;;;8.15;4.45;;;32.80;99.90;;;;;;4886389;29;20107;-96
2022/07/28 10:47:27;;;;;;;7.35;3.80;;;32.40;99.90;;;;;;4902614;29;20039;-94
2022/07/28 10:49:55;;;;;;;11.00;4.43;;;32.60;99.90;;;;;;4903602;29;20035;-94
2022/07/28 10:52:26;;;;;;;10.07;4.60;;;32.60;99.90;;;;;;4905496;29;20407;-93
2022/07/28 10:55:27;;;;;;;7.25;4.13;;;32.40;99.90;;;;;;4912230;23;20140;-94
2022/07/28 10:58:09;;;;;;;8.27;4.43;;;32.30;99.90;;;;;;4911496;23;20392;-93
2022/07/28 11:00:45;;;;;;;11.50;3.92;;;32.30;99.90;;;;;;4883487;29;20040;-93
2022/07/28 11:03:41;;;;;;;9.10;4.13;;;32.30;99.90;;;;;;4882689;29;20025;-93
2022/07/28 11:06:27;;;;;;;7.53;4.10;;;32.60;99.90;;;;;;4882416;29;20032;-91
2022/07/28 11:09:14;;;;;;;8.95;4.32;;;32.30;99.90;;;;;;4864163;29;20037;-92
2022/07/28 11:11:50;;;;;;;9.63;3.63;;;32.30;99.90;;;;;;4864055;29;20514;-92
2022/07/28 11:14:26;;;;;;;8.90;4.00;;;32.20;99.90;;;;;;4864048;29;20045;-93
2022/07/28 11:17:05;;;;;;;10.13;4.07;;;32.10;99.90;;;;;;4864261;29;20033;-93
2022/07/28 11:19:44;;;;;;;9.07;4.32;;;32.50;99.90;;;;;;4864070;29;20033;-93
2022/07/28 11:22:17;;;;;;;10.63;5.13;;;32.80;99.90;;;;;;4864228;29;20025;-92
2022/07/28 11:24:56;;;;;;;8.40;3.95;;;32.10;99.90;;;;;;4863941;29;20033;-92
2022/07/28 11:27:41;;;;;;;6.25;3.72;;;32.10;99.90;;;;;;4864389;29;20037;-93
2022/07/28 11:30:11;;;;;;;8.52;4.45;;;32.30;99.90;;;;;;4869364;29;20033;-94
2022/07/28 11:32:58;;;;;;;8.63;4.68;;;32.60;99.90;;;;;;4866499;29;20037;-94
2022/07/28 11:35:48;;;;;;;12.52;4.38;;;32.60;99.90;;;;;;4863704;29;20073;-93
2022/07/28 11:38:35;;;;;;;8.93;4.10;;;32.20;99.90;;;;;;4866507;29;20086;-94
2022/07/28 11:41:21;;;;;;;8.20;3.88;;;32.20;99.90;;;;;;4863675;29;20460;-95
2022/07/28 11:43:49;;;;;;;6.15;3.70;;;32.40;99.90;;;;;;4863667;29;20466;-93
2022/07/28 11:46:16;;;;;;;6.53;4.18;;;32.30;99.90;;;;;;4866280;29;20057;-93
2022/07/28 11:48:43;;;;;;;8.18;4.20;;;32.60;99.90;;;;;;4866885;29;20033;-95
2022/07/28 11:54:14;;;;;;;8.40;4.10;;;32.60;99.90;;;;;;4880460;29;20112;-92
2022/07/28 11:56:41;;;;;;;9.90;4.18;;;32.30;99.90;;;;;;4865968;29;20029;-94
2022/07/28 11:59:10;;;;;;;10.55;4.13;;;32.50;99.90;;;;;;4851901;29;20052;-94
2022/07/28 12:01:36;;;;;;;10.43;4.15;;;32.60;99.90;;;;;;4889522;29;20508;-93
2022/07/28 12:04:17;;;;;;;5.85;3.50;;;32.50;99.90;;;;;;4868492;29;20494;-93
2022/07/28 12:06:45;;;;;;;7.18;3.90;;;32.30;99.90;;;;;;4856189;29;20056;-93
2022/07/28 12:09:12;;;;;;;8.30;4.50;;;32.60;99.90;;;;;;4886383;29;20123;-94
2022/07/28 12:11:42;;;;;;;8.98;4.32;;;32.80;99.90;;;;;;4866072;29;20391;-92
2022/07/28 12:14:13;;;;;;;11.52;5.10;;;33.20;99.90;;;;;;4870372;29;20044;-94
2022/07/28 12:16:43;;;;;;;5.95;4.40;;;33.10;99.90;;;;;;4886176;29;20037;-93
2022/07/28 12:19:14;;;;;;;7.88;4.72;;;33.20;99.90;;;;;;4883107;29;20124;-94
2022/07/28 12:21:52;;;;;;;8.70;5.07;;;33.20;99.90;;;;;;4897007;29;20029;-94
2022/07/28 12:24:30;;;;;;;10.27;4.55;;;33.20;99.90;;;;;;4863892;29;20057;-93
2022/07/28 12:27:02;;;;;;;8.85;4.97;;;32.90;99.90;;;;;;4889620;29;20025;-94
2022/07/28 12:29:30;;;;;;;7.32;4.85;;;32.70;99.90;;;;;;4851588;29;20057;-94
2022/07/28 12:32:00;;;;;;;6.70;4.60;;;33.00;99.90;;;;;;4857156;29;20025;-93
2022/07/28 12:34:31;;;;;;;8.55;5.40;;;32.90;99.90;;;;;;4855833;29;20099;-94
2022/07/28 12:37:04;;;;;;;7.38;5.82;;;32.80;99.90;;;;;;4880978;29;20497;-93
2022/07/28 12:39:38;;;;;;;9.50;5.20;;;32.90;99.90;;;;;;4880187;29;20028;-93
2022/07/28 12:42:05;;;;;;;;;;;33.30;99.90;;;;;;4898542;29;20304;-94
2022/07/28 12:44:40;;;;;;;8.00;4.88;;;33.10;99.90;;;;;;4894358;29;19946;-93
2022/07/28 12:47:11;;;;;;;5.82;5.05;;;33.00;99.90;;;;;;4888290;29;20033;-94
2022/07/28 12:49:39;;;;;;;7.45;5.20;;;33.20;99.90;;;;;;4899760;29;20047;-94
2022/07/28 12:52:24;;;;;;;8.55;5.38;;;33.40;99.90;;;;;;4877080;29;20017;-94
2022/07/28 12:54:52;;;;;;;8.77;4.88;;;32.90;99.90;;;;;;4865471;29;20580;-94
2022/07/28 12:57:39;;;;;;;9.10;5.03;;;33.10;99.90;;;;;;4887509;29;20032;-94
2022/07/28 13:00:06;;;;;;;10.85;4.72;;;32.80;99.90;;;;;;4871989;29;20029;-94
2022/07/28 13:02:37;;;;;;;11.95;4.63;;;32.80;99.90;;;;;;4851740;29;20045;-93
2022/07/28 13:05:06;;;;;;;8.07;4.65;;;32.80;99.90;;;;;;4852979;29;20033;-92
2022/07/28 13:07:34;;;;;;;8.13;5.10;;;32.80;99.90;;;;;;4850916;29;20037;-93
2022/07/28 13:10:07;;;;;;;6.28;4.40;;;32.80;99.90;;;;;;4850504;29;20037;-92
2022/07/28 13:12:34;;;;;;;8.52;5.10;;;33.00;99.90;;;;;;4850527;29;20128;-94
2022/07/28 13:15:15;;;;;;;11.27;5.28;;;33.20;99.90;;;;;;4850585;29;20030;-93
2022/07/28 13:17:52;;;;;;;8.15;6.00;;;33.10;99.90;;;;;;4850788;29;20127;-93
2022/07/28 13:20:23;;;;;;;5.82;5.22;;;32.90;99.90;;;;;;4850441;29;20033;-94
2022/07/28 13:22:51;;;;;;;8.07;5.60;;;32.70;99.90;;;;;;4850719;29;20029;-93
2022/07/28 13:25:21;;;;;;;9.13;4.38;;;32.70;99.90;;;;;;4850569;29;20033;-93
2022/07/28 13:27:48;;;;;;;9.25;4.30;;;32.70;99.90;;;;;;4850119;29;20035;-92
2022/07/28 13:30:14;;;;;;;7.60;4.55;;;32.70;99.90;;;;;;4850196;29;20033;-93
2022/07/28 13:32:44;;;;;;;6.15;4.30;;;32.90;99.90;;;;;;4850305;29;20037;-94
2022/07/28 13:35:10;;;;;;;9.02;4.65;;;32.60;99.90;;;;;;4850578;29;20036;-93